Time;durP1;ratioP1;P1;durP2;ratioP2;P2;SDS_P1;SDS_P2;PMS_P1;PMS_P2;Temp;Humidity;BMP_temperature;BMP_pressure;BME280_temperature;BME280_humidity;BME280_pressure;Samples;Min_cycle;Max_cycle;Signal;HPM_P1;HPM_P2
2021/12/26 00:02:15;;;;;;;9.98;2.45;;;-3.20;74.30;;;;;;5127672;27;38923;-61
2021/12/26 00:04:42;;;;;;;9.38;2.90;;;-3.20;74.40;;;;;;5127758;27;37495;-61
2021/12/26 00:07:10;;;;;;;5.75;2.47;;;-3.20;74.00;;;;;;5129347;27;37974;-61
2021/12/26 00:09:37;;;;;;;6.82;2.45;;;-3.30;74.10;;;;;;5130895;27;36499;-62
2021/12/26 00:12:08;;;;;;;6.20;2.53;;;-3.30;74.30;;;;;;5131819;27;37424;-61
2021/12/26 00:14:35;;;;;;;7.65;2.40;;;-3.30;74.30;;;;;;5131455;27;37687;-61
2021/12/26 00:17:02;;;;;;;7.22;3.15;;;-3.30;74.50;;;;;;5130697;27;35813;-61
2021/12/26 00:19:30;;;;;;;5.68;2.40;;;-3.30;74.20;;;;;;5131023;27;36987;-61
2021/12/26 00:21:57;;;;;;;5.53;2.50;;;-3.30;74.00;;;;;;5131907;27;37692;-62
2021/12/26 00:24:24;;;;;;;5.38;2.30;;;-3.30;73.90;;;;;;5131239;27;35996;-62
2021/12/26 00:26:52;;;;;;;9.90;2.65;;;-3.30;73.80;;;;;;5130864;27;37856;-61
2021/12/26 00:29:21;;;;;;;8.13;3.00;;;-3.30;73.70;;;;;;5131798;27;37474;-61
2021/12/26 00:31:48;;;;;;;5.55;2.45;;;-3.30;73.60;;;;;;5130359;27;38166;-61
2021/12/26 00:34:16;;;;;;;6.70;2.17;;;-3.30;73.60;;;;;;5131470;27;36975;-61
2021/12/26 00:36:43;;;;;;;6.15;2.30;;;-3.30;73.40;;;;;;5131658;27;38873;-62
2021/12/26 00:39:11;;;;;;;6.40;2.45;;;-3.30;73.30;;;;;;5130839;27;38133;-61
2021/12/26 00:41:39;;;;;;;6.43;1.90;;;-3.30;73.40;;;;;;5131562;27;38029;-61
2021/12/26 00:44:07;;;;;;;5.32;2.05;;;-3.30;73.20;;;;;;5131897;27;36056;-62
2021/12/26 00:46:36;;;;;;;7.30;2.35;;;-3.30;72.90;;;;;;5130819;27;35883;-61
2021/12/26 00:49:04;;;;;;;5.13;2.15;;;-3.40;72.20;;;;;;5131971;27;35143;-61
2021/12/26 00:51:32;;;;;;;4.55;1.60;;;-3.50;72.20;;;;;;5129837;27;36293;-61
2021/12/26 00:53:59;;;;;;;5.78;2.03;;;-3.50;72.20;;;;;;5131579;27;38713;-61
2021/12/26 00:56:26;;;;;;;5.03;1.98;;;-3.30;71.90;;;;;;5131391;27;36955;-61
2021/12/26 00:58:53;;;;;;;5.47;1.73;;;-3.30;70.70;;;;;;5130500;27;36526;-62
2021/12/26 01:01:21;;;;;;;4.28;1.70;;;-3.30;69.40;;;;;;5131084;27;37470;-61
2021/12/26 01:03:50;;;;;;;6.80;2.28;;;-3.20;69.10;;;;;;5130840;27;36146;-61
2021/12/26 01:06:17;;;;;;;6.03;1.67;;;-3.20;68.60;;;;;;5131035;27;37552;-61
2021/12/26 01:08:48;;;;;;;4.50;1.65;;;-3.10;69.40;;;;;;5131182;27;37240;-61
2021/12/26 01:11:31;;;;;;;5.05;1.85;;;-3.10;68.80;;;;;;5129935;27;38944;-61
2021/12/26 01:13:59;;;;;;;6.68;2.28;;;-3.20;68.30;;;;;;5130098;27;38266;-61
2021/12/26 01:16:28;;;;;;;4.50;1.45;;;-3.20;68.80;;;;;;5130824;27;37876;-61
2021/12/26 01:19:03;;;;;;;5.35;1.80;;;-3.10;69.10;;;;;;5129248;27;36592;-61
2021/12/26 01:21:31;;;;;;;4.82;2.00;;;-3.10;69.50;;;;;;5130545;27;39470;-61
2021/12/26 01:24:03;;;;;;;4.97;1.92;;;-3.10;69.30;;;;;;5130339;27;37413;-62
2021/12/26 01:26:31;;;;;;;7.33;2.20;;;-3.10;69.20;;;;;;5131042;27;37934;-61
2021/12/26 01:28:59;;;;;;;5.90;2.05;;;-3.00;69.20;;;;;;5129974;27;35456;-61
2021/12/26 01:31:27;;;;;;;4.95;1.70;;;-3.10;68.90;;;;;;5130483;27;37809;-61
2021/12/26 01:34:05;;;;;;;8.43;2.20;;;-3.10;69.10;;;;;;5129958;27;36021;-61
2021/12/26 01:36:35;;;;;;;5.57;1.60;;;-3.00;69.50;;;;;;5130187;27;38071;-61
2021/12/26 01:39:07;;;;;;;5.35;2.50;;;-3.00;69.10;;;;;;5129599;27;37675;-61
2021/12/26 01:41:41;;;;;;;5.18;2.05;;;-3.00;68.60;;;;;;5130163;27;37909;-62
2021/12/26 01:44:11;;;;;;;5.43;1.70;;;-3.00;68.40;;;;;;5129817;27;38730;-61
2021/12/26 01:46:40;;;;;;;5.95;2.10;;;-3.10;68.30;;;;;;5130490;27;36966;-61
2021/12/26 01:49:12;;;;;;;3.85;1.65;;;-3.10;68.20;;;;;;5129742;27;36701;-61
2021/12/26 01:51:41;;;;;;;6.90;2.10;;;-3.10;67.70;;;;;;5125102;27;38351;-61
2021/12/26 01:54:10;;;;;;;7.57;1.90;;;-3.10;67.50;;;;;;5108754;27;37414;-61
2021/12/26 01:56:39;;;;;;;5.43;2.30;;;-3.10;67.40;;;;;;5107934;27;38367;-61
2021/12/26 01:59:08;;;;;;;4.60;2.20;;;-3.20;67.60;;;;;;5107954;27;35307;-61
2021/12/26 02:01:36;;;;;;;7.15;2.47;;;-3.20;67.30;;;;;;5108774;27;37684;-61
2021/12/26 02:04:04;;;;;;;6.32;1.98;;;-3.20;67.50;;;;;;5108237;27;35963;-61
2021/12/26 02:06:33;;;;;;;8.23;2.05;;;-3.30;67.40;;;;;;5109221;27;35763;-62
2021/12/26 02:09:01;;;;;;;4.57;1.90;;;-3.30;67.30;;;;;;5109427;27;35223;-62
2021/12/26 02:11:28;;;;;;;3.42;1.45;;;-3.30;66.80;;;;;;5109272;27;37468;-62
2021/12/26 02:13:55;;;;;;;5.50;1.60;;;-3.30;66.90;;;;;;5108417;27;38451;-62
2021/12/26 02:16:24;;;;;;;5.50;1.55;;;-3.20;67.00;;;;;;5108693;27;36897;-62
2021/12/26 02:18:52;;;;;;;5.00;1.63;;;-3.20;67.10;;;;;;5108585;27;37488;-62
2021/12/26 02:21:33;;;;;;;6.03;1.70;;;-3.20;66.80;;;;;;5107939;27;36130;-61
2021/12/26 02:24:10;;;;;;;5.65;1.55;;;-3.20;66.90;;;;;;5108507;27;37269;-61
2021/12/26 02:29:22;;;;;;;6.30;1.60;;;-3.30;66.60;;;;;;5107387;27;37507;-61
2021/12/26 02:31:49;;;;;;;5.85;2.42;;;-3.10;67.00;;;;;;5106302;27;37582;-61
2021/12/26 02:34:17;;;;;;;4.20;1.52;;;-3.30;66.50;;;;;;5108448;27;37344;-61
2021/12/26 02:36:45;;;;;;;4.15;1.40;;;-3.30;67.00;;;;;;5108927;27;36990;-61
2021/12/26 02:39:15;;;;;;;6.15;1.60;;;-3.30;66.40;;;;;;5107743;27;36996;-62
2021/12/26 02:41:43;;;;;;;6.60;1.65;;;-3.30;66.20;;;;;;5107937;27;38547;-62
2021/12/26 02:44:10;;;;;;;5.30;1.80;;;-3.30;66.30;;;;;;5107516;27;37674;-62
2021/12/26 02:46:37;;;;;;;5.63;2.13;;;-3.30;65.90;;;;;;5108229;27;37338;-62
2021/12/26 02:49:05;;;;;;;6.13;1.98;;;-3.10;66.20;;;;;;5108996;27;36577;-62
2021/12/26 02:51:32;;;;;;;3.78;1.45;;;-3.30;65.40;;;;;;5109836;27;38438;-62
2021/12/26 02:54:01;;;;;;;3.65;1.35;;;-3.30;65.60;;;;;;5127947;27;35799;-62
2021/12/26 02:56:29;;;;;;;3.58;1.40;;;-3.30;65.90;;;;;;5128789;27;36644;-62
2021/12/26 02:58:57;;;;;;;3.83;1.33;;;-3.30;65.70;;;;;;5128270;27;36697;-62
2021/12/26 03:01:28;;;;;;;3.17;1.30;;;-3.20;65.50;;;;;;5128110;27;40449;-62
2021/12/26 03:03:56;;;;;;;3.05;1.13;;;-3.20;65.60;;;;;;5127326;27;37333;-62
2021/12/26 03:06:29;;;;;;;4.70;1.80;;;-3.20;66.00;;;;;;5127916;27;37717;-62
2021/12/26 03:08:56;;;;;;;3.90;1.30;;;-3.20;65.30;;;;;;5127718;27;36507;-62
2021/12/26 03:11:25;;;;;;;4.03;1.52;;;-3.20;65.50;;;;;;5127690;27;38403;-62
2021/12/26 03:13:52;;;;;;;5.60;1.52;;;-3.10;65.70;;;;;;5127837;27;37371;-62
2021/12/26 03:16:20;;;;;;;3.50;1.40;;;-3.00;65.90;;;;;;5128512;27;36914;-62
2021/12/26 03:18:47;;;;;;;6.55;1.77;;;-3.30;65.60;;;;;;5128564;27;36458;-62
2021/12/26 03:21:15;;;;;;;6.80;1.92;;;-3.20;65.20;;;;;;5127535;27;37429;-62
2021/12/26 03:23:42;;;;;;;5.28;2.03;;;-3.30;65.40;;;;;;5128904;27;37244;-62
2021/12/26 03:26:09;;;;;;;5.43;1.98;;;-3.30;65.10;;;;;;5128021;27;37050;-62
2021/12/26 03:28:38;;;;;;;5.68;2.10;;;-3.30;65.40;;;;;;5127796;27;38073;-62
2021/12/26 03:31:06;;;;;;;5.97;2.15;;;-3.30;63.70;;;;;;5128023;27;38821;-62
2021/12/26 03:33:34;;;;;;;3.55;1.30;;;-3.40;64.80;;;;;;5127405;27;37104;-62
2021/12/26 03:36:02;;;;;;;4.68;1.70;;;-3.40;64.60;;;;;;5128132;27;36949;-61
2021/12/26 03:38:29;;;;;;;4.20;1.85;;;-3.40;64.90;;;;;;5128267;27;35206;-62
2021/12/26 03:40:57;;;;;;;5.60;1.85;;;-3.40;64.90;;;;;;5127882;27;38907;-62
2021/12/26 03:43:25;;;;;;;4.18;1.52;;;-3.50;65.10;;;;;;5127470;27;38633;-60
2021/12/26 03:45:54;;;;;;;5.60;1.90;;;-3.50;65.10;;;;;;5127975;27;35736;-60
2021/12/26 03:48:24;;;;;;;5.05;1.90;;;-3.50;65.10;;;;;;5128111;27;37387;-60
2021/12/26 03:50:53;;;;;;;5.20;1.60;;;-3.50;65.50;;;;;;5128029;27;38355;-60
2021/12/26 03:53:22;;;;;;;3.65;1.30;;;-3.50;65.40;;;;;;5128149;27;20137;-60
2021/12/26 03:55:50;;;;;;;7.82;2.50;;;-3.50;65.60;;;;;;5127567;27;36783;-60
2021/12/26 03:58:18;;;;;;;4.07;1.63;;;-3.40;65.00;;;;;;5128287;27;38424;-60
2021/12/26 04:00:47;;;;;;;6.32;1.40;;;-3.50;64.90;;;;;;5127283;27;36270;-60
2021/12/26 04:03:16;;;;;;;5.30;1.65;;;-3.50;65.20;;;;;;5127215;27;37228;-60
2021/12/26 04:05:44;;;;;;;4.90;1.50;;;-3.50;65.30;;;;;;5127501;27;37219;-60
2021/12/26 04:08:12;;;;;;;5.00;1.70;;;-3.30;65.50;;;;;;5126844;27;37494;-60
2021/12/26 04:10:39;;;;;;;3.67;1.63;;;-3.50;65.50;;;;;;5127155;27;38160;-61
2021/12/26 04:13:07;;;;;;;5.78;1.85;;;-3.50;65.20;;;;;;5128240;27;37529;-60
2021/12/26 04:15:35;;;;;;;4.53;1.65;;;-3.50;65.70;;;;;;5128396;27;37411;-60
2021/12/26 04:18:02;;;;;;;5.55;1.38;;;-3.50;65.80;;;;;;5127830;27;35268;-61
2021/12/26 04:20:31;;;;;;;6.63;1.58;;;-3.50;65.90;;;;;;5128341;27;37830;-60
2021/12/26 04:22:59;;;;;;;3.38;1.50;;;-3.30;66.40;;;;;;5127461;27;37565;-60
2021/12/26 04:25:27;;;;;;;3.35;1.33;;;-3.60;66.30;;;;;;5127583;27;36716;-60
2021/12/26 04:27:55;;;;;;;6.78;1.55;;;-3.60;66.10;;;;;;5127043;27;37006;-61
2021/12/26 04:30:23;;;;;;;2.45;1.10;;;-3.60;66.00;;;;;;5127561;27;37231;-60
2021/12/26 04:32:51;;;;;;;5.63;1.80;;;-3.70;65.70;;;;;;5127465;27;37256;-60
2021/12/26 04:35:19;;;;;;;3.85;1.40;;;-3.70;65.80;;;;;;5127586;27;35696;-60
2021/12/26 04:37:48;;;;;;;5.78;1.80;;;-3.70;66.10;;;;;;5127320;27;36907;-60
2021/12/26 04:40:17;;;;;;;3.83;1.30;;;-3.70;66.10;;;;;;5127738;27;36195;-60
2021/12/26 04:42:46;;;;;;;4.85;1.55;;;-3.70;66.20;;;;;;5127615;27;38192;-60
2021/12/26 04:45:15;;;;;;;5.60;1.70;;;-3.70;66.10;;;;;;5126769;27;37203;-60
2021/12/26 04:47:43;;;;;;;6.40;1.83;;;-3.70;66.00;;;;;;5127459;27;36419;-60
2021/12/26 04:50:13;;;;;;;6.53;1.88;;;-3.70;66.10;;;;;;5128358;27;37681;-60
2021/12/26 04:52:43;;;;;;;8.10;1.58;;;-3.70;66.30;;;;;;5127228;27;38039;-60
2021/12/26 04:55:14;;;;;;;7.03;2.40;;;-3.90;66.30;;;;;;5130741;27;37672;-61
2021/12/26 04:57:42;;;;;;;5.35;1.80;;;-4.10;66.20;;;;;;5130629;27;36932;-60
2021/12/26 05:00:11;;;;;;;4.25;1.65;;;-4.20;66.60;;;;;;5130448;27;36155;-60
2021/12/26 05:02:39;;;;;;;5.45;1.80;;;-4.30;67.40;;;;;;5130265;27;37533;-60
2021/12/26 05:05:09;;;;;;;3.75;1.20;;;-4.30;68.20;;;;;;5131216;27;37139;-60
2021/12/26 05:07:38;;;;;;;3.45;1.33;;;-4.30;68.40;;;;;;5130753;27;38469;-61
2021/12/26 05:10:08;;;;;;;4.40;1.73;;;-4.30;68.40;;;;;;5130537;27;37817;-61
2021/12/26 05:12:37;;;;;;;5.80;1.90;;;-4.20;68.30;;;;;;5131171;27;37362;-61
2021/12/26 05:15:06;;;;;;;4.68;1.77;;;-4.20;67.90;;;;;;5129950;27;37577;-61
2021/12/26 05:17:33;;;;;;;4.13;1.45;;;-4.10;68.10;;;;;;5131046;27;36318;-60
2021/12/26 05:20:00;;;;;;;3.58;1.80;;;-4.10;67.60;;;;;;5130914;27;37495;-61
2021/12/26 05:22:28;;;;;;;4.93;1.70;;;-4.20;67.50;;;;;;5129907;27;37371;-61
2021/12/26 05:24:55;;;;;;;5.43;2.03;;;-4.40;67.70;;;;;;5131053;27;37952;-61
2021/12/26 05:27:22;;;;;;;4.65;1.60;;;-4.40;68.80;;;;;;5130414;27;36233;-61
2021/12/26 05:29:51;;;;;;;4.22;1.40;;;-4.50;69.20;;;;;;5129470;27;39254;-60
2021/12/26 05:32:18;;;;;;;5.60;1.80;;;-4.50;68.90;;;;;;5130575;27;38527;-61
2021/12/26 05:34:46;;;;;;;3.47;1.40;;;-4.40;68.80;;;;;;5131070;27;37789;-61
2021/12/26 05:37:13;;;;;;;4.75;1.77;;;-4.40;69.40;;;;;;5129921;27;35154;-60
2021/12/26 05:39:42;;;;;;;3.92;1.70;;;-3.40;69.20;;;;;;5129743;27;37476;-61
2021/12/26 05:42:15;;;;;;;4.75;1.55;;;-4.20;68.50;;;;;;5130532;27;37945;-61
2021/12/26 05:44:43;;;;;;;7.65;1.92;;;-4.20;68.40;;;;;;5129423;27;36999;-61
2021/12/26 05:47:12;;;;;;;6.65;1.90;;;-4.10;68.70;;;;;;5130818;27;36438;-61
2021/12/26 05:49:39;;;;;;;5.50;1.80;;;-4.10;68.70;;;;;;5130190;27;36372;-61
2021/12/26 05:52:08;;;;;;;7.47;1.58;;;-4.20;68.40;;;;;;5128958;27;37305;-61
2021/12/26 05:54:36;;;;;;;5.95;1.83;;;-4.20;68.50;;;;;;5130502;27;36971;-60
2021/12/26 05:57:04;;;;;;;4.45;1.63;;;-4.20;68.70;;;;;;5129719;27;37547;-61
2021/12/26 05:59:31;;;;;;;4.28;1.80;;;-4.20;68.60;;;;;;5130387;27;37521;-61
2021/12/26 06:01:58;;;;;;;4.60;1.77;;;-4.30;68.50;;;;;;5129093;27;37424;-61
2021/12/26 06:04:27;;;;;;;5.60;1.60;;;-4.20;68.50;;;;;;5129371;27;36691;-61
2021/12/26 06:06:55;;;;;;;5.22;1.60;;;-4.20;68.40;;;;;;5129492;27;35266;-61
2021/12/26 06:09:22;;;;;;;5.20;1.80;;;-4.20;68.50;;;;;;5129952;27;37728;-61
2021/12/26 06:11:50;;;;;;;5.15;1.80;;;-4.20;68.30;;;;;;5129800;27;37482;-60
2021/12/26 06:14:17;;;;;;;4.80;1.73;;;-4.20;68.20;;;;;;5130050;27;36931;-60
2021/12/26 06:16:44;;;;;;;6.82;1.90;;;-4.20;68.10;;;;;;5128835;27;36412;-60
2021/12/26 06:19:12;;;;;;;8.70;3.15;;;-4.20;67.70;;;;;;5129788;27;37427;-60
2021/12/26 06:21:41;;;;;;;4.20;1.70;;;-4.20;67.60;;;;;;5129316;27;36260;-60
2021/12/26 06:24:08;;;;;;;5.57;1.80;;;-4.20;67.70;;;;;;5129833;27;35677;-60
2021/12/26 06:26:36;;;;;;;4.18;1.60;;;-4.20;67.40;;;;;;5129266;27;37017;-60
2021/12/26 06:29:05;;;;;;;4.10;1.67;;;-4.20;67.30;;;;;;5129585;27;39482;-60
2021/12/26 06:31:32;;;;;;;3.97;1.70;;;-4.20;67.50;;;;;;5128972;27;38034;-60
2021/12/26 06:34:00;;;;;;;5.07;2.20;;;-4.10;66.90;;;;;;5129540;27;36917;-60
2021/12/26 06:36:27;;;;;;;6.43;1.90;;;-4.10;66.90;;;;;;5129356;27;39008;-60
2021/12/26 06:38:56;;;;;;;4.55;1.60;;;-4.10;66.70;;;;;;5129620;27;37443;-60
2021/12/26 06:41:25;;;;;;;6.50;2.10;;;-4.10;66.80;;;;;;5128767;27;38880;-60
2021/12/26 06:43:52;;;;;;;4.80;1.70;;;-4.10;66.20;;;;;;5128696;27;38068;-60
2021/12/26 06:46:20;;;;;;;4.47;1.55;;;-4.10;66.10;;;;;;5129119;27;36542;-60
2021/12/26 06:48:48;;;;;;;4.10;1.67;;;-4.10;66.00;;;;;;5130250;27;36355;-60
2021/12/26 06:51:15;;;;;;;8.35;1.88;;;-4.10;66.10;;;;;;5129270;27;36045;-60
2021/12/26 06:53:42;;;;;;;4.63;1.63;;;-4.10;66.00;;;;;;5128955;27;37945;-60
2021/12/26 06:56:11;;;;;;;5.72;1.80;;;-4.10;66.10;;;;;;5129691;27;36436;-60
2021/12/26 06:58:38;;;;;;;7.10;1.95;;;-4.10;65.80;;;;;;5129226;27;38732;-60
2021/12/26 07:01:06;;;;;;;4.00;1.80;;;-4.10;66.30;;;;;;5128308;27;37346;-60
2021/12/26 07:03:33;;;;;;;5.68;2.13;;;-4.10;66.00;;;;;;5128755;27;36751;-60
2021/12/26 07:06:00;;;;;;;5.78;1.95;;;-4.10;66.00;;;;;;5128901;27;35244;-60
2021/12/26 07:08:28;;;;;;;5.97;2.05;;;-4.10;65.60;;;;;;5127926;27;38443;-60
2021/12/26 07:10:55;;;;;;;4.38;1.40;;;-4.10;65.20;;;;;;5129019;27;38636;-60
2021/12/26 07:13:24;;;;;;;5.65;2.17;;;-4.10;65.60;;;;;;5128814;27;35752;-60
2021/12/26 07:15:51;;;;;;;5.22;1.92;;;-4.10;65.80;;;;;;5127736;27;35348;-60
2021/12/26 07:18:19;;;;;;;4.78;1.77;;;-4.10;66.00;;;;;;5128172;27;38583;-60
2021/12/26 07:20:46;;;;;;;4.05;1.63;;;-3.70;65.20;;;;;;5129141;27;37192;-60
2021/12/26 07:23:13;;;;;;;6.47;1.67;;;-4.10;65.50;;;;;;5128075;27;35700;-60
2021/12/26 07:25:41;;;;;;;5.45;2.00;;;-4.10;66.10;;;;;;5129147;27;37676;-61
2021/12/26 07:28:08;;;;;;;5.15;1.77;;;-4.10;65.30;;;;;;5127989;27;38036;-60
2021/12/26 07:30:38;;;;;;;5.15;1.85;;;-4.00;65.20;;;;;;5128821;27;36241;-60
2021/12/26 07:33:05;;;;;;;5.57;2.15;;;-4.00;65.00;;;;;;5128731;27;38113;-60
2021/12/26 07:35:33;;;;;;;5.78;2.40;;;-4.00;65.20;;;;;;5128885;27;35242;-60
2021/12/26 07:38:00;;;;;;;4.90;1.50;;;-4.00;65.20;;;;;;5128538;27;39123;-60
2021/12/26 07:40:28;;;;;;;5.40;2.05;;;-4.00;65.10;;;;;;5128814;27;37241;-60
2021/12/26 07:42:56;;;;;;;4.13;1.70;;;-4.00;65.20;;;;;;5127177;27;35665;-61
2021/12/26 07:45:23;;;;;;;5.35;1.90;;;-4.00;65.20;;;;;;5128468;27;37757;-61
2021/12/26 07:47:52;;;;;;;4.75;2.10;;;-4.00;64.80;;;;;;5127239;27;37463;-61
2021/12/26 07:50:19;;;;;;;5.68;2.05;;;-4.00;64.60;;;;;;5128286;27;38785;-61
2021/12/26 07:52:48;;;;;;;5.15;2.20;;;-4.00;64.30;;;;;;5128363;27;36888;-61
2021/12/26 07:55:16;;;;;;;5.90;1.70;;;-4.00;64.60;;;;;;5128040;27;36524;-61
2021/12/26 07:57:48;;;;;;;6.22;2.00;;;-4.00;64.80;;;;;;5127140;27;36158;-61
2021/12/26 08:00:17;;;;;;;8.95;2.13;;;-4.00;64.60;;;;;;5128671;27;35910;-61
2021/12/26 08:02:44;;;;;;;7.90;2.47;;;-3.90;64.40;;;;;;5126150;27;37010;-61
2021/12/26 08:05:14;;;;;;;5.07;2.03;;;-3.80;64.50;;;;;;5127666;27;37978;-61
2021/12/26 08:07:41;;;;;;;4.97;2.00;;;-3.70;64.40;;;;;;5128268;27;38958;-61
2021/12/26 08:10:09;;;;;;;6.70;2.33;;;-3.70;63.70;;;;;;5128318;27;37331;-60
2021/12/26 08:12:37;;;;;;;6.22;2.30;;;-3.70;63.90;;;;;;5128247;27;35700;-61
2021/12/26 08:15:06;;;;;;;5.25;2.33;;;-3.60;63.80;;;;;;5127883;27;36707;-61
2021/12/26 08:17:33;;;;;;;5.85;2.45;;;-3.60;64.20;;;;;;5126612;27;37655;-61
2021/12/26 08:20:00;;;;;;;5.03;2.10;;;-3.50;64.00;;;;;;5128350;27;38028;-61
2021/12/26 08:22:29;;;;;;;5.40;2.30;;;-3.30;64.20;;;;;;5127160;27;35687;-61
2021/12/26 08:24:56;;;;;;;7.25;2.75;;;-2.00;64.20;;;;;;5127543;27;37140;-61
2021/12/26 08:27:24;;;;;;;6.00;2.42;;;-2.90;63.20;;;;;;5128357;27;37593;-60
2021/12/26 08:29:51;;;;;;;5.20;2.05;;;-2.80;62.40;;;;;;5130717;27;37893;-59
2021/12/26 08:32:19;;;;;;;6.28;2.42;;;-2.60;62.50;;;;;;5131408;27;35948;-60
2021/12/26 08:34:47;;;;;;;6.47;2.20;;;-2.40;61.40;;;;;;5132044;27;36768;-59
2021/12/26 08:37:15;;;;;;;5.53;2.42;;;-2.20;61.10;;;;;;5132117;27;38379;-59
2021/12/26 08:39:47;;;;;;;5.07;2.17;;;-1.80;60.00;;;;;;5130995;27;39235;-60
2021/12/26 08:42:15;;;;;;;4.55;2.22;;;-1.80;59.20;;;;;;5130384;27;38335;-59
2021/12/26 08:44:42;;;;;;;5.07;2.25;;;-1.70;59.20;;;;;;5131377;27;36712;-60
2021/12/26 08:47:11;;;;;;;4.82;2.65;;;-1.80;58.10;;;;;;5130883;27;37622;-60
2021/12/26 08:49:39;;;;;;;4.50;2.10;;;-1.80;58.90;;;;;;5130900;27;38158;-60
2021/12/26 08:52:08;;;;;;;5.10;2.35;;;-1.80;58.90;;;;;;5131302;27;35485;-60
2021/12/26 08:54:36;;;;;;;5.57;2.53;;;-1.70;58.60;;;;;;5130132;27;35167;-60
2021/12/26 08:57:06;;;;;;;6.75;2.55;;;-1.60;58.60;;;;;;5130626;27;36247;-60
2021/12/26 08:59:34;;;;;;;6.53;2.50;;;-1.50;58.00;;;;;;5130294;27;37172;-60
2021/12/26 09:02:03;;;;;;;5.50;2.22;;;-1.20;57.40;;;;;;5128896;27;36855;-61
2021/12/26 09:04:31;;;;;;;6.82;2.38;;;-0.90;58.00;;;;;;5130105;27;37196;-61
2021/12/26 09:06:58;;;;;;;6.57;2.97;;;-1.00;57.50;;;;;;5128291;27;38046;-60
2021/12/26 09:09:28;;;;;;;6.55;2.55;;;-1.20;57.30;;;;;;5130085;27;36148;-60
2021/12/26 09:11:56;;;;;;;5.55;2.78;;;-1.10;57.90;;;;;;5128336;27;36988;-59
2021/12/26 09:14:29;;;;;;;6.07;3.20;;;-1.00;57.50;;;;;;5130174;27;38669;-59
2021/12/26 09:16:57;;;;;;;5.65;2.40;;;-0.60;57.10;;;;;;5131517;27;37503;-59
2021/12/26 09:19:27;;;;;;;6.55;2.40;;;-0.20;55.20;;;;;;5130440;27;38644;-60
2021/12/26 09:21:55;;;;;;;5.60;2.78;;;0.10;53.30;;;;;;5130529;27;36779;-60
2021/12/26 09:24:23;;;;;;;6.53;2.88;;;0.30;53.50;;;;;;5130717;27;39362;-59
2021/12/26 09:26:50;;;;;;;6.25;2.80;;;0.30;52.80;;;;;;5130377;27;37740;-60
2021/12/26 09:29:18;;;;;;;6.63;2.92;;;0.30;52.60;;;;;;5129905;27;37575;-59
2021/12/26 09:31:47;;;;;;;6.63;2.70;;;0.20;52.90;;;;;;5130269;27;35858;-59
2021/12/26 09:34:14;;;;;;;6.20;2.90;;;0.10;53.70;;;;;;5130341;27;36670;-60
2021/12/26 09:36:42;;;;;;;8.75;3.05;;;0.30;54.30;;;;;;5130664;27;39015;-59
2021/12/26 09:39:10;;;;;;;9.25;2.72;;;0.50;54.30;;;;;;5130013;27;38086;-60
2021/12/26 09:41:38;;;;;;;6.78;2.63;;;0.60;53.70;;;;;;5128532;27;37014;-59
2021/12/26 09:44:06;;;;;;;5.63;2.72;;;0.60;53.90;;;;;;5128774;27;37887;-60
2021/12/26 09:46:34;;;;;;;5.45;2.53;;;0.70;53.40;;;;;;5129540;27;36226;-59
2021/12/26 09:49:03;;;;;;;5.45;2.08;;;0.80;52.90;;;;;;5129572;27;35908;-59
2021/12/26 09:51:31;;;;;;;5.25;2.50;;;0.90;52.70;;;;;;5129972;27;37948;-59
2021/12/26 09:53:58;;;;;;;5.43;2.67;;;1.20;52.80;;;;;;5130934;27;36598;-59
2021/12/26 09:56:26;;;;;;;6.20;2.63;;;1.50;53.40;;;;;;5130059;27;38777;-59
2021/12/26 09:58:57;;;;;;;8.98;2.90;;;1.60;51.90;;;;;;5129381;27;38029;-59
2021/12/26 10:01:29;;;;;;;5.10;2.10;;;1.80;52.60;;;;;;5129583;27;35833;-59
2021/12/26 10:03:57;;;;;;;5.47;2.60;;;2.00;51.50;;;;;;5128973;27;38425;-59
2021/12/26 10:06:26;;;;;;;7.07;2.85;;;2.20;52.20;;;;;;5129115;27;38257;-59
2021/12/26 10:08:56;;;;;;;7.43;2.80;;;2.50;50.70;;;;;;5128797;27;38546;-59
2021/12/26 10:11:25;;;;;;;6.30;2.70;;;2.60;50.60;;;;;;5129881;27;36896;-59
2021/12/26 10:13:57;;;;;;;6.40;2.55;;;2.70;51.50;;;;;;5129589;27;36506;-59
2021/12/26 10:16:27;;;;;;;6.78;2.95;;;2.70;51.00;;;;;;5130070;27;38055;-59
2021/12/26 10:18:55;;;;;;;5.05;2.58;;;2.60;50.80;;;;;;5130166;27;37391;-59
2021/12/26 10:21:33;;;;;;;6.22;2.60;;;2.50;51.30;;;;;;5130069;27;37726;-59
2021/12/26 10:24:04;;;;;;;6.28;3.00;;;2.30;51.10;;;;;;5129686;27;37110;-59
2021/12/26 10:26:39;;;;;;;6.40;2.55;;;2.20;51.00;;;;;;5129421;27;37415;-58
2021/12/26 10:29:23;;;;;;;9.10;2.65;;;2.00;51.50;;;;;;5129244;27;38593;-58
2021/12/26 10:31:58;;;;;;;4.88;2.50;;;2.40;51.70;;;;;;5129710;27;37389;-58
2021/12/26 10:34:29;;;;;;;6.63;2.67;;;1.70;52.20;;;;;;5129457;27;35141;-58
2021/12/26 10:36:59;;;;;;;6.15;2.90;;;1.60;52.60;;;;;;5129970;27;36270;-58
2021/12/26 10:39:29;;;;;;;5.95;3.17;;;1.50;53.30;;;;;;5130125;27;38804;-58
2021/12/26 10:41:58;;;;;;;7.53;2.65;;;1.40;53.70;;;;;;5129294;27;36989;-58
2021/12/26 10:44:35;;;;;;;6.30;2.45;;;1.40;54.00;;;;;;5127618;27;35197;-58
2021/12/26 10:47:06;;;;;;;6.32;2.40;;;1.30;53.90;;;;;;5129349;27;38438;-58
2021/12/26 10:49:40;;;;;;;8.00;2.83;;;1.30;54.20;;;;;;5129961;27;38862;-58
2021/12/26 10:52:18;;;;;;;5.95;2.58;;;1.20;54.10;;;;;;5127181;27;38367;-58
2021/12/26 10:54:51;;;;;;;7.55;2.80;;;1.10;54.30;;;;;;5128418;27;37886;-58
2021/12/26 10:57:22;;;;;;;4.97;2.25;;;1.00;54.80;;;;;;5129700;27;37732;-58
2021/12/26 11:00:07;;;;;;;6.13;2.67;;;1.00;55.10;;;;;;5128629;27;36980;-58
2021/12/26 11:02:35;;;;;;;6.38;3.08;;;1.00;55.40;;;;;;5127737;27;38751;-58
2021/12/26 11:05:06;;;;;;;4.38;2.13;;;1.00;55.80;;;;;;5128002;27;36444;-58
2021/12/26 11:07:58;;;;;;;4.53;2.40;;;0.90;55.50;;;;;;5128294;27;36341;-58
2021/12/26 11:10:28;;;;;;;6.07;2.25;;;0.90;55.10;;;;;;5124945;27;37364;-59
2021/12/26 11:12:58;;;;;;;5.80;2.35;;;0.90;55.20;;;;;;5129322;27;38806;-58
2021/12/26 11:15:28;;;;;;;15.95;3.17;;;0.80;55.40;;;;;;5129238;27;36242;-58
2021/12/26 11:17:58;;;;;;;5.30;2.33;;;0.90;55.80;;;;;;5128412;27;37747;-58
2021/12/26 11:20:29;;;;;;;6.80;2.40;;;0.80;55.40;;;;;;5128693;27;37480;-58
2021/12/26 11:22:59;;;;;;;6.75;2.72;;;0.90;55.00;;;;;;5128226;27;38760;-58
2021/12/26 11:25:28;;;;;;;4.85;2.15;;;0.90;55.10;;;;;;5128297;27;37447;-58
2021/12/26 11:27:55;;;;;;;10.25;2.80;;;0.90;54.60;;;;;;5127136;27;37643;-59
2021/12/26 11:30:23;;;;;;;7.88;2.63;;;0.80;54.70;;;;;;5128241;27;36051;-58
2021/12/26 11:32:51;;;;;;;7.50;2.30;;;0.80;54.70;;;;;;5129000;27;36829;-59
2021/12/26 11:35:18;;;;;;;7.07;2.30;;;0.80;55.30;;;;;;5126846;27;36633;-59
2021/12/26 11:37:46;;;;;;;5.65;2.53;;;0.70;55.10;;;;;;5128468;27;37413;-58
2021/12/26 11:40:17;;;;;;;4.72;2.45;;;0.80;54.50;;;;;;5128569;27;36181;-58
2021/12/26 11:43:09;;;;;;;5.20;2.33;;;0.90;55.20;;;;;;5126899;27;37072;-58
2021/12/26 11:45:42;;;;;;;6.45;2.20;;;1.10;54.60;;;;;;5127739;27;36530;-58
2021/12/26 11:48:45;;;;;;;6.57;2.50;;;1.30;54.00;;;;;;5128940;27;36350;-58
2021/12/26 11:51:31;;;;;;;5.93;2.30;;;1.60;53.90;;;;;;5127358;27;38120;-58
2021/12/26 11:54:17;;;;;;;8.20;3.08;;;1.70;53.40;;;;;;5128962;27;36993;-58
2021/12/26 11:56:55;;;;;;;7.78;2.75;;;1.80;54.10;;;;;;5128238;27;36419;-58
2021/12/26 11:59:39;;;;;;;6.60;2.38;;;2.00;53.60;;;;;;5127942;27;37507;-58
2021/12/26 12:02:07;;;;;;;6.07;2.50;;;2.00;53.40;;;;;;5128376;27;37489;-58
2021/12/26 12:04:35;;;;;;;9.05;2.53;;;1.90;53.10;;;;;;5128378;27;35635;-59
2021/12/26 12:07:06;;;;;;;6.70;2.35;;;1.80;53.40;;;;;;5128432;27;36381;-58
2021/12/26 12:09:35;;;;;;;9.35;3.20;;;1.70;53.40;;;;;;5128496;27;37607;-58
2021/12/26 12:12:09;;;;;;;8.25;2.63;;;1.60;53.50;;;;;;5127581;27;37320;-58
2021/12/26 12:14:53;;;;;;;6.40;2.50;;;1.50;53.90;;;;;;5128269;27;39031;-58
2021/12/26 12:17:23;;;;;;;7.93;2.85;;;1.50;54.20;;;;;;5126795;27;36687;-58
2021/12/26 12:20:16;;;;;;;5.82;2.63;;;1.40;54.90;;;;;;5127236;27;37535;-58
2021/12/26 12:23:16;;;;;;;7.65;3.50;;;1.40;54.10;;;;;;5127082;27;37897;-58
2021/12/26 12:25:50;;;;;;;6.10;2.60;;;1.30;55.20;;;;;;5126266;27;37154;-58
2021/12/26 12:28:22;;;;;;;5.75;2.40;;;1.20;54.90;;;;;;5126837;27;37691;-58
2021/12/26 12:30:51;;;;;;;7.35;2.78;;;1.20;55.60;;;;;;5127517;27;39431;-58
2021/12/26 12:33:22;;;;;;;6.10;2.55;;;1.20;56.00;;;;;;5126815;27;36088;-59
2021/12/26 12:36:02;;;;;;;6.18;2.88;;;1.20;56.10;;;;;;5127824;27;37066;-58
2021/12/26 12:38:37;;;;;;;10.40;2.90;;;1.20;56.40;;;;;;5126950;27;36694;-59
2021/12/26 12:41:09;;;;;;;8.25;2.90;;;1.20;56.80;;;;;;5126738;27;36335;-59
2021/12/26 12:43:47;;;;;;;8.38;2.70;;;1.10;56.20;;;;;;5125695;27;35946;-59
2021/12/26 12:46:15;;;;;;;6.18;2.78;;;1.00;56.20;;;;;;5126739;27;37015;-59
2021/12/26 12:48:45;;;;;;;8.00;2.75;;;1.00;56.50;;;;;;5126242;27;35128;-59
2021/12/26 12:51:39;;;;;;;6.00;2.47;;;1.00;57.40;;;;;;5127083;27;38547;-59
2021/12/26 12:54:20;;;;;;;6.22;2.65;;;1.00;57.60;;;;;;5126474;27;37402;-59
2021/12/26 12:56:47;;;;;;;6.90;3.13;;;0.90;57.70;;;;;;5126645;27;38612;-58
2021/12/26 12:59:32;;;;;;;6.53;3.05;;;1.00;57.60;;;;;;5127144;27;36954;-59
2021/12/26 13:02:02;;;;;;;6.88;2.42;;;0.90;57.70;;;;;;5126495;27;37496;-59
2021/12/26 13:04:31;;;;;;;6.40;2.60;;;0.90;57.70;;;;;;5127072;27;37377;-58
2021/12/26 13:07:01;;;;;;;6.72;2.80;;;0.90;58.00;;;;;;5126475;27;37165;-58